createdAt,value
2023-01-07T00:00:09.023Z,70.77
2023-01-07T00:05:39.882Z,70.78
2023-01-07T00:13:39.425Z,72.10
2023-01-07T00:16:46.167Z,72.25
2023-01-07T00:22:19.832Z,71.64
2023-01-07T00:25:25.807Z,71.58
2023-01-07T00:28:31.012Z,71.47
2023-01-07T00:31:39.554Z,71.60
2023-01-07T00:40:05.431Z,71.99
2023-01-07T00:43:14.842Z,72.11
2023-01-07T00:48:46.390Z,72.46
2023-01-07T00:54:20.955Z,72.74
2023-01-07T01:02:24.604Z,71.44
2023-01-07T01:07:55.761Z,70.84
2023-01-07T01:11:01.140Z,71.17
2023-01-07T01:16:33.600Z,70.94
2023-01-07T01:19:39.124Z,70.64
2023-01-07T01:25:11.359Z,67.39
2023-01-07T01:30:43.390Z,64.58
2023-01-07T01:36:21.784Z,62.55
2023-01-07T01:39:30.245Z,62.28
2023-01-07T01:42:38.744Z,61.62
2023-01-07T01:45:45.737Z,61.43
2023-01-07T01:48:51.750Z,61.31
2023-01-07T01:52:01.482Z,59.95
2023-01-07T01:57:33.637Z,59.05
2023-01-07T02:05:40.488Z,60.02
2023-01-07T02:13:50.651Z,59.90
2023-01-07T02:17:10.028Z,59.57
2023-01-07T02:20:30.311Z,59.99
2023-01-07T02:24:09.567Z,59.54
2023-01-07T02:27:34.778Z,59.34
2023-01-07T02:31:02.431Z,59.72
2023-01-07T02:34:30.399Z,60.01
2023-01-07T02:42:49.365Z,60.05
2023-01-07T02:46:17.756Z,60.52
2023-01-07T02:49:27.885Z,60.60
2023-01-07T02:52:40.080Z,60.47
2023-01-07T02:59:08.162Z,61.78
2023-01-07T03:02:37.105Z,62.26
2023-01-07T03:06:02.579Z,62.39
2023-01-07T03:09:32.100Z,62.64
2023-01-07T03:12:53.302Z,63.33
2023-01-07T03:18:35.411Z,63.92
2023-01-07T03:21:43.419Z,63.89
2023-01-07T03:24:49.520Z,64.31
2023-01-07T03:35:38.151Z,64.86
2023-01-07T03:38:43.724Z,65.31
2023-01-07T03:44:15.904Z,64.81
2023-01-07T03:49:50.331Z,64.39
2023-01-07T03:55:21.761Z,63.85
2023-01-07T04:00:52.967Z,63.09
2023-01-07T04:06:25.436Z,63.13
2023-01-07T04:12:02.003Z,62.84
2023-01-07T04:17:37.274Z,62.88
2023-01-07T04:23:11.243Z,62.21
2023-01-07T04:28:44.207Z,61.66
2023-01-07T04:34:18.436Z,63.85
2023-01-07T04:37:23.770Z,64.14
2023-01-07T04:40:30.622Z,63.86
2023-01-07T04:43:36.057Z,64.13
2023-01-07T04:46:42.530Z,64.09
2023-01-07T04:49:47.773Z,63.76
2023-01-07T04:52:53.342Z,63.78
2023-01-07T04:56:00.644Z,64.16
2023-01-07T04:59:06.460Z,64.46
2023-01-07T05:04:38.259Z,64.50
2023-01-07T05:10:11.310Z,64.53
2023-01-07T05:15:47.751Z,65.00
2023-01-07T05:18:54.228Z,65.08
2023-01-07T05:22:00.835Z,64.83
2023-01-07T05:24:59.571Z,64.73
2023-01-07T05:30:31.322Z,65.39
2023-01-07T05:33:39.089Z,65.46
2023-01-07T05:39:11.366Z,65.67
2023-01-07T05:44:45.862Z,65.24
2023-01-07T05:50:16.894Z,65.54
2023-01-07T05:55:50.729Z,65.90
2023-01-07T06:01:22.139Z,66.49
2023-01-07T06:04:27.459Z,66.43
2023-01-07T06:10:00.800Z,66.38
2023-01-07T06:15:35.139Z,65.62
2023-01-07T06:18:40.509Z,66.04
2023-01-07T06:24:12.622Z,66.24
2023-01-07T06:29:44.491Z,68.11
2023-01-07T06:35:19.708Z,68.82
2023-01-07T06:40:55.198Z,67.21
2023-01-07T06:44:00.844Z,66.58
2023-01-07T06:49:32.910Z,64.76
2023-01-07T06:55:04.416Z,64.67
2023-01-07T07:00:36.368Z,64.39
2023-01-07T07:03:42.750Z,64.74
2023-01-07T07:11:41.369Z,65.05
2023-01-07T07:14:46.720Z,65.12
2023-01-07T07:17:52.085Z,64.45
2023-01-07T07:20:58.314Z,64.51
2023-01-07T07:24:03.280Z,64.45
2023-01-07T07:27:08.834Z,64.08
2023-01-07T07:32:40.661Z,62.67
2023-01-07T07:35:45.677Z,62.02
2023-01-07T07:38:51.854Z,61.87
2023-01-07T07:44:15.884Z,60.84
2023-01-07T07:47:20.913Z,60.85
2023-01-07T07:50:25.819Z,61.48
2023-01-07T07:53:32.232Z,60.94
2023-01-07T08:01:31.893Z,60.69
2023-01-07T08:04:41.579Z,60.91
2023-01-07T08:07:47.957Z,60.58
2023-01-07T08:13:21.115Z,59.69
2023-01-07T08:18:55.414Z,60.48
2023-01-07T08:27:00.955Z,60.99
2023-01-07T08:37:33.216Z,59.26
2023-01-07T08:40:38.849Z,59.43
2023-01-07T08:43:45.323Z,58.94
2023-01-07T08:49:20.283Z,59.84
2023-01-07T08:54:53.600Z,59.37
2023-01-07T08:57:59.454Z,58.24
2023-01-07T09:03:31.123Z,58.04
2023-01-07T09:09:04.739Z,56.36
2023-01-07T09:12:11.160Z,56.42
2023-01-07T09:15:16.789Z,56.10
2023-01-07T09:18:22.588Z,56.43
2023-01-07T09:21:29.040Z,56.79
2023-01-07T09:24:34.749Z,56.72
2023-01-07T09:27:40.426Z,56.53
2023-01-07T09:30:45.773Z,56.28
2023-01-07T09:33:51.877Z,56.20
2023-01-07T09:39:28.079Z,55.72
2023-01-07T09:47:31.846Z,54.92
2023-01-07T09:53:09.655Z,54.50
2023-01-07T09:58:42.982Z,54.04
2023-01-07T10:04:50.249Z,52.26
2023-01-07T10:08:31.119Z,52.02
2023-01-07T10:17:08.038Z,52.18
2023-01-07T10:20:23.970Z,51.87
2023-01-07T10:23:36.557Z,51.78
2023-01-07T10:29:18.492Z,50.83
2023-01-07T10:32:06.410Z,51.44
2023-01-07T10:35:13.032Z,51.34
2023-01-07T10:41:05.079Z,52.11
2023-01-07T10:44:33.370Z,51.74
2023-01-07T10:47:54.937Z,51.24
2023-01-07T10:51:23.219Z,50.60
2023-01-07T10:57:28.493Z,50.87
2023-01-07T11:00:34.023Z,50.18
2023-01-07T11:03:40.844Z,50.01
2023-01-07T11:07:02.462Z,49.83
2023-01-07T11:10:08.171Z,49.65
2023-01-07T11:13:06.232Z,49.58
2023-01-07T11:16:18.829Z,50.16
2023-01-07T11:19:25.216Z,50.04
2023-01-07T11:22:42.785Z,50.09
2023-01-07T11:25:48.144Z,50.46
2023-01-07T11:28:56.937Z,50.04
2023-01-07T11:32:06.859Z,49.86
2023-01-07T11:35:17.706Z,49.57
2023-01-07T11:40:49.682Z,49.70
2023-01-07T11:46:29.875Z,48.49
2023-01-07T11:49:45.816Z,48.49
2023-01-07T11:55:48.079Z,49.33
2023-01-07T11:58:56.961Z,49.26
2023-01-07T12:02:05.945Z,49.70
2023-01-07T12:07:37.222Z,49.46
2023-01-07T12:13:09.589Z,49.42
2023-01-07T12:21:48.531Z,49.21
2023-01-07T12:25:34.493Z,49.72
2023-01-07T12:31:59.290Z,49.70
2023-01-07T12:35:24.543Z,50.37
2023-01-07T12:41:29.997Z,50.56
2023-01-07T12:44:36.486Z,50.78
2023-01-07T12:47:45.308Z,50.26
2023-01-07T12:50:57.539Z,49.58
2023-01-07T12:54:20.212Z,48.69
2023-01-07T13:00:19.877Z,49.32
2023-01-07T13:03:53.439Z,49.23
2023-01-07T13:07:09.604Z,49.27
2023-01-07T13:10:27.997Z,48.53
2023-01-07T13:13:53.095Z,48.58
2023-01-07T13:16:59.976Z,49.24
2023-01-07T13:20:05.334Z,49.44
2023-01-07T13:23:10.961Z,49.21
2023-01-07T13:26:27.205Z,48.92
2023-01-07T13:29:55.809Z,49.05
2023-01-07T13:33:28.193Z,49.82
2023-01-07T13:36:52.522Z,50.43
2023-01-07T13:43:09.227Z,49.31
2023-01-07T13:46:19.158Z,49.04
2023-01-07T13:49:42.126Z,48.35
2023-01-07T13:52:51.368Z,47.98
2023-01-07T13:55:58.237Z,48.40
2023-01-07T13:59:11.206Z,48.28
2023-01-07T14:07:38.993Z,48.56
2023-01-07T14:10:47.451Z,49.17
2023-01-07T14:14:46.872Z,49.04
2023-01-07T14:18:12.043Z,49.43
2023-01-07T14:21:45.271Z,49.66
2023-01-07T14:25:26.969Z,49.91
2023-01-07T14:29:05.278Z,49.95
2023-01-07T14:32:41.191Z,49.95
2023-01-07T14:35:52.363Z,50.32
2023-01-07T14:39:01.594Z,50.82
2023-01-07T14:45:11.597Z,51.42
2023-01-07T14:48:16.951Z,51.69
2023-01-07T14:51:35.278Z,51.67
2023-01-07T14:55:26.160Z,51.42
2023-01-07T14:58:58.946Z,51.42
2023-01-07T15:03:00.597Z,51.64
2023-01-07T15:06:41.062Z,51.84
2023-01-07T15:10:18.087Z,52.17
2023-01-07T15:13:49.597Z,52.41
2023-01-07T15:16:56.873Z,52.17
2023-01-07T15:20:03.544Z,51.96
2023-01-07T15:23:26.771Z,51.86
2023-01-07T15:32:39.510Z,52.51
2023-01-07T15:35:55.272Z,52.28
2023-01-07T15:39:04.465Z,52.06
2023-01-07T15:42:11.179Z,52.37
2023-01-07T15:45:16.254Z,52.54
2023-01-07T15:48:26.198Z,52.59
2023-01-07T15:51:32.443Z,52.28
2023-01-07T15:54:48.452Z,52.71
2023-01-07T15:57:54.026Z,53.86
2023-01-07T16:01:01.623Z,53.82
2023-01-07T16:04:14.902Z,53.41
2023-01-07T16:07:19.905Z,54.00
2023-01-07T16:10:46.580Z,53.61
2023-01-07T16:13:53.025Z,54.28
2023-01-07T16:16:59.698Z,54.83
2023-01-07T16:20:05.520Z,55.36
2023-01-07T16:23:16.704Z,55.76
2023-01-07T16:26:34.494Z,55.55
2023-01-07T16:29:42.704Z,56.52
2023-01-07T16:32:47.743Z,57.25
2023-01-07T16:35:53.115Z,56.77
2023-01-07T16:39:00.827Z,56.92
2023-01-07T16:42:24.571Z,57.27
2023-01-07T16:45:42.354Z,57.53
2023-01-07T16:48:48.545Z,57.83
2023-01-07T16:52:21.441Z,58.70
2023-01-07T16:55:47.886Z,59.02
2023-01-07T16:59:08.036Z,58.13
2023-01-07T17:02:29.497Z,59.54
2023-01-07T17:05:40.810Z,59.77
2023-01-07T17:08:46.429Z,59.45
2023-01-07T17:11:52.985Z,59.82
2023-01-07T17:15:01.171Z,59.94
2023-01-07T17:18:08.029Z,59.25
2023-01-07T17:21:14.820Z,58.65
2023-01-07T17:24:22.380Z,58.76
2023-01-07T17:27:36.336Z,58.66
2023-01-07T17:30:50.625Z,58.79
2023-01-07T17:33:57.379Z,59.61
2023-01-07T17:37:02.415Z,60.39
2023-01-07T17:40:09.131Z,60.58
2023-01-07T17:43:33.358Z,59.74
2023-01-07T17:46:39.363Z,59.75
2023-01-07T17:49:44.507Z,59.26
2023-01-07T17:52:50.664Z,59.17
2023-01-07T17:55:57.672Z,59.43
2023-01-07T17:59:02.777Z,58.92
2023-01-07T18:02:08.075Z,58.71
2023-01-07T18:05:15.435Z,58.60
2023-01-07T18:08:21.298Z,58.63
2023-01-07T18:11:40.659Z,58.56
2023-01-07T18:14:45.486Z,58.94
2023-01-07T18:17:50.894Z,59.95
2023-01-07T18:20:56.291Z,60.14
2023-01-07T18:24:01.100Z,60.13
2023-01-07T18:27:05.956Z,60.75
2023-01-07T18:30:12.566Z,61.11
2023-01-07T18:33:22.304Z,61.79
2023-01-07T18:36:28.787Z,62.27
2023-01-07T18:39:33.634Z,62.01
2023-01-07T18:42:38.536Z,61.82
2023-01-07T18:45:43.622Z,62.84
2023-01-07T18:48:52.154Z,63.01
2023-01-07T18:51:58.708Z,63.21
2023-01-07T18:55:04.091Z,63.21
2023-01-07T18:58:11.131Z,63.39
2023-01-07T19:01:20.413Z,62.91
2023-01-07T19:04:26.851Z,63.52
2023-01-07T19:07:32.929Z,62.62
2023-01-07T19:10:39.674Z,62.64
2023-01-07T19:13:45.005Z,63.03
2023-01-07T19:16:51.369Z,62.72
2023-01-07T19:19:59.118Z,63.11
2023-01-07T19:23:06.794Z,63.53
2023-01-07T19:26:11.533Z,63.39
2023-01-07T19:29:17.300Z,63.29
2023-01-07T19:32:23.113Z,63.99
2023-01-07T19:35:28.660Z,64.21
2023-01-07T19:38:35.257Z,63.53
2023-01-07T19:41:42.162Z,62.82
2023-01-07T19:44:48.750Z,63.34
2023-01-07T19:47:55.211Z,63.28
2023-01-07T19:51:11.724Z,64.12
2023-01-07T19:54:17.793Z,64.28
2023-01-07T19:57:24.346Z,64.34
2023-01-07T20:00:29.930Z,63.70
2023-01-07T20:03:35.609Z,63.31
2023-01-07T20:06:45.037Z,63.09
2023-01-07T20:09:50.183Z,63.04
2023-01-07T20:12:56.407Z,63.12
2023-01-07T20:16:02.155Z,63.58
2023-01-07T20:19:08.759Z,63.03
2023-01-07T20:22:16.996Z,63.24
2023-01-07T20:25:23.811Z,63.30
2023-01-07T20:28:30.419Z,63.99
2023-01-07T20:31:37.248Z,64.12
2023-01-07T20:34:43.745Z,63.68
2023-01-07T20:37:50.690Z,63.58
2023-01-07T20:40:58.951Z,63.02
2023-01-07T20:44:09.356Z,63.22
2023-01-07T20:47:14.466Z,62.51
2023-01-07T20:50:21.800Z,63.47
2023-01-07T20:53:27.532Z,63.54
2023-01-07T20:56:36.585Z,62.72
2023-01-07T20:59:42.641Z,62.82
2023-01-07T21:02:48.969Z,62.98
2023-01-07T21:05:55.447Z,62.40
2023-01-07T21:09:01.752Z,62.39
2023-01-07T21:12:07.253Z,62.35
2023-01-07T21:15:13.140Z,61.28
2023-01-07T21:18:18.108Z,60.42
2023-01-07T21:21:33.837Z,60.12
2023-01-07T21:24:39.062Z,61.19
2023-01-07T21:27:45.466Z,62.30
2023-01-07T21:30:51.959Z,62.85
2023-01-07T21:33:58.106Z,63.26
2023-01-07T21:37:03.921Z,63.40
2023-01-07T21:40:09.479Z,63.56
2023-01-07T21:43:15.417Z,63.15
2023-01-07T21:46:21.171Z,62.69
2023-01-07T21:49:20.059Z,62.62
2023-01-07T21:52:11.934Z,62.71
2023-01-07T21:55:17.215Z,61.97
2023-01-07T21:58:15.810Z,62.46
2023-01-07T22:01:21.363Z,62.17
2023-01-07T22:04:27.854Z,62.75
2023-01-07T22:07:33.086Z,61.88
2023-01-07T22:10:38.630Z,61.16
2023-01-07T22:13:44.711Z,61.17
2023-01-07T22:16:50.935Z,61.59
2023-01-07T22:19:57.836Z,61.58
2023-01-07T22:23:03.529Z,62.15
2023-01-07T22:26:09.406Z,63.67
2023-01-07T22:29:15.901Z,63.67
2023-01-07T22:32:21.697Z,63.48
2023-01-07T22:35:26.751Z,63.70
2023-01-07T22:38:33.565Z,64.05
2023-01-07T22:41:40.309Z,63.58
2023-01-07T22:44:52.564Z,64.23
2023-01-07T22:47:59.203Z,63.08
2023-01-07T22:51:09.654Z,62.88
2023-01-07T22:54:15.609Z,62.87
2023-01-07T22:57:23.235Z,62.82
2023-01-07T23:00:53.013Z,62.97
2023-01-07T23:03:58.851Z,63.54
2023-01-07T23:07:03.902Z,63.80
2023-01-07T23:10:10.421Z,64.01
2023-01-07T23:13:15.892Z,63.70
2023-01-07T23:16:22.988Z,63.46
2023-01-07T23:19:30.832Z,63.19
2023-01-07T23:22:36.551Z,62.97
2023-01-07T23:25:44.787Z,62.37
2023-01-07T23:28:50.202Z,61.49
2023-01-07T23:31:56.168Z,61.76
2023-01-07T23:35:02.678Z,61.84
2023-01-07T23:38:08.037Z,62.03
2023-01-07T23:41:17.783Z,62.88
2023-01-07T23:44:24.842Z,62.64
2023-01-07T23:47:31.707Z,62.52
2023-01-07T23:50:37.679Z,62.76
2023-01-07T23:53:44.038Z,62.21
2023-01-07T23:56:49.347Z,62.43
2023-01-07T23:59:55.637Z,61.79
